sensor_id;sensor_type;location;lat;lon;timestamp;temperature;humidity
53146;DHT22;39042;53.150;5.898;2023-06-26T00:01:27;22.40;99.90
53146;DHT22;39042;53.150;5.898;2023-06-26T00:04:00;22.40;99.90
53146;DHT22;39042;53.150;5.898;2023-06-26T00:06:26;22.40;99.90
53146;DHT22;39042;53.150;5.898;2023-06-26T00:08:53;22.40;99.90
53146;DHT22;39042;53.150;5.898;2023-06-26T00:11:21;22.40;99.90
53146;DHT22;39042;53.150;5.898;2023-06-26T00:13:47;22.40;99.90
53146;DHT22;39042;53.150;5.898;2023-06-26T00:16:13;22.40;99.90
53146;DHT22;39042;53.150;5.898;2023-06-26T00:18:39;22.40;99.90
53146;DHT22;39042;53.150;5.898;2023-06-26T00:21:05;22.40;99.90
53146;DHT22;39042;53.150;5.898;2023-06-26T00:23:31;22.40;99.90
53146;DHT22;39042;53.150;5.898;2023-06-26T00:25:58;22.40;99.90
53146;DHT22;39042;53.150;5.898;2023-06-26T00:28:24;22.40;99.90
53146;DHT22;39042;53.150;5.898;2023-06-26T00:30:50;22.40;99.90
53146;DHT22;39042;53.150;5.898;2023-06-26T00:33:16;22.40;99.90
53146;DHT22;39042;53.150;5.898;2023-06-26T00:35:42;22.40;99.90
53146;DHT22;39042;53.150;5.898;2023-06-26T00:38:08;22.40;99.90
53146;DHT22;39042;53.150;5.898;2023-06-26T00:40:33;22.40;99.90
53146;DHT22;39042;53.150;5.898;2023-06-26T00:42:59;22.40;99.90
53146;DHT22;39042;53.150;5.898;2023-06-26T00:45:28;22.40;99.90
53146;DHT22;39042;53.150;5.898;2023-06-26T00:47:54;22.40;99.90
53146;DHT22;39042;53.150;5.898;2023-06-26T00:50:20;22.40;99.90
53146;DHT22;39042;53.150;5.898;2023-06-26T00:52:46;22.40;99.90
53146;DHT22;39042;53.150;5.898;2023-06-26T00:55:12;22.40;99.90
53146;DHT22;39042;53.150;5.898;2023-06-26T00:57:38;22.30;99.90
53146;DHT22;39042;53.150;5.898;2023-06-26T01:00:05;22.30;99.90
53146;DHT22;39042;53.150;5.898;2023-06-26T01:02:31;22.30;99.90
53146;DHT22;39042;53.150;5.898;2023-06-26T01:05:02;22.30;99.90
53146;DHT22;39042;53.150;5.898;2023-06-26T01:07:35;22.30;99.90
53146;DHT22;39042;53.150;5.898;2023-06-26T01:10:05;22.30;99.90
53146;DHT22;39042;53.150;5.898;2023-06-26T01:12:33;22.30;99.90
53146;DHT22;39042;53.150;5.898;2023-06-26T01:15:02;22.30;99.90
53146;DHT22;39042;53.150;5.898;2023-06-26T01:17:28;22.40;99.90
53146;DHT22;39042;53.150;5.898;2023-06-26T01:20:02;22.30;99.90
53146;DHT22;39042;53.150;5.898;2023-06-26T01:22:43;22.40;99.90
53146;DHT22;39042;53.150;5.898;2023-06-26T01:25:35;22.40;99.90
53146;DHT22;39042;53.150;5.898;2023-06-26T01:28:05;22.40;99.90
53146;DHT22;39042;53.150;5.898;2023-06-26T01:30:32;22.30;99.90
53146;DHT22;39042;53.150;5.898;2023-06-26T01:33:03;22.30;99.90
53146;DHT22;39042;53.150;5.898;2023-06-26T01:35:30;22.30;99.90
53146;DHT22;39042;53.150;5.898;2023-06-26T01:38:15;22.30;99.90
53146;DHT22;39042;53.150;5.898;2023-06-26T01:40:41;22.30;99.90
53146;DHT22;39042;53.150;5.898;2023-06-26T01:45:46;22.20;99.90
53146;DHT22;39042;53.150;5.898;2023-06-26T01:48:15;22.20;99.90
53146;DHT22;39042;53.150;5.898;2023-06-26T01:50:43;22.10;99.90
53146;DHT22;39042;53.150;5.898;2023-06-26T01:53:15;22.10;99.90
53146;DHT22;39042;53.150;5.898;2023-06-26T01:56:28;22.00;99.90
53146;DHT22;39042;53.150;5.898;2023-06-26T01:58:46;21.90;99.90
53146;DHT22;39042;53.150;5.898;2023-06-26T02:01:12;21.90;99.90
53146;DHT22;39042;53.150;5.898;2023-06-26T02:03:38;21.80;99.90
53146;DHT22;39042;53.150;5.898;2023-06-26T02:06:04;21.80;99.90
53146;DHT22;39042;53.150;5.898;2023-06-26T02:08:30;21.80;99.90
53146;DHT22;39042;53.150;5.898;2023-06-26T02:10:56;21.70;99.90
53146;DHT22;39042;53.150;5.898;2023-06-26T02:13:22;21.70;99.90
53146;DHT22;39042;53.150;5.898;2023-06-26T02:15:48;21.70;99.90
53146;DHT22;39042;53.150;5.898;2023-06-26T02:18:14;21.60;99.90
53146;DHT22;39042;53.150;5.898;2023-06-26T02:20:40;21.60;99.90
53146;DHT22;39042;53.150;5.898;2023-06-26T02:23:06;21.60;99.90
53146;DHT22;39042;53.150;5.898;2023-06-26T02:25:31;21.60;99.90
53146;DHT22;39042;53.150;5.898;2023-06-26T02:27:57;21.50;99.90
53146;DHT22;39042;53.150;5.898;2023-06-26T02:30:23;21.50;99.90
53146;DHT22;39042;53.150;5.898;2023-06-26T02:32:49;21.50;99.90
53146;DHT22;39042;53.150;5.898;2023-06-26T02:35:18;21.50;99.90
53146;DHT22;39042;53.150;5.898;2023-06-26T02:37:43;21.50;99.90
53146;DHT22;39042;53.150;5.898;2023-06-26T02:40:10;21.50;99.90
53146;DHT22;39042;53.150;5.898;2023-06-26T02:42:37;21.50;99.90
53146;DHT22;39042;53.150;5.898;2023-06-26T02:45:04;21.50;99.90
53146;DHT22;39042;53.150;5.898;2023-06-26T02:47:31;21.40;99.90
53146;DHT22;39042;53.150;5.898;2023-06-26T02:49:57;21.40;99.90
53146;DHT22;39042;53.150;5.898;2023-06-26T02:52:23;21.40;99.90
53146;DHT22;39042;53.150;5.898;2023-06-26T02:54:49;21.40;99.90
53146;DHT22;39042;53.150;5.898;2023-06-26T02:57:15;21.40;99.90
53146;DHT22;39042;53.150;5.898;2023-06-26T02:59:42;21.40;99.90
53146;DHT22;39042;53.150;5.898;2023-06-26T03:02:09;21.30;99.90
53146;DHT22;39042;53.150;5.898;2023-06-26T03:04:40;21.30;99.90
53146;DHT22;39042;53.150;5.898;2023-06-26T03:07:12;21.30;99.90
53146;DHT22;39042;53.150;5.898;2023-06-26T03:09:40;21.30;99.90
53146;DHT22;39042;53.150;5.898;2023-06-26T03:12:07;21.20;99.90
53146;DHT22;39042;53.150;5.898;2023-06-26T03:14:33;21.20;99.90
53146;DHT22;39042;53.150;5.898;2023-06-26T03:17:00;21.20;99.90
53146;DHT22;39042;53.150;5.898;2023-06-26T03:19:29;21.10;99.90
53146;DHT22;39042;53.150;5.898;2023-06-26T03:22:28;21.10;99.90
53146;DHT22;39042;53.150;5.898;2023-06-26T03:24:54;21.00;99.90
53146;DHT22;39042;53.150;5.898;2023-06-26T03:27:21;21.00;99.90
53146;DHT22;39042;53.150;5.898;2023-06-26T03:29:49;20.90;99.90
53146;DHT22;39042;53.150;5.898;2023-06-26T03:32:15;20.90;99.90
53146;DHT22;39042;53.150;5.898;2023-06-26T03:34:41;20.90;99.90
53146;DHT22;39042;53.150;5.898;2023-06-26T03:37:07;20.90;99.90
53146;DHT22;39042;53.150;5.898;2023-06-26T03:39:33;20.80;99.90
53146;DHT22;39042;53.150;5.898;2023-06-26T03:41:59;20.80;99.90
53146;DHT22;39042;53.150;5.898;2023-06-26T03:44:27;20.80;99.90
53146;DHT22;39042;53.150;5.898;2023-06-26T03:46:53;20.80;99.90
53146;DHT22;39042;53.150;5.898;2023-06-26T03:49:19;20.80;99.90
53146;DHT22;39042;53.150;5.898;2023-06-26T03:51:46;20.80;99.90
53146;DHT22;39042;53.150;5.898;2023-06-26T03:54:13;20.70;99.90
53146;DHT22;39042;53.150;5.898;2023-06-26T03:56:39;20.70;99.90
53146;DHT22;39042;53.150;5.898;2023-06-26T03:59:05;20.70;99.90
53146;DHT22;39042;53.150;5.898;2023-06-26T04:01:31;20.70;99.90
53146;DHT22;39042;53.150;5.898;2023-06-26T04:03:57;20.60;99.90
53146;DHT22;39042;53.150;5.898;2023-06-26T04:06:23;20.50;99.90
53146;DHT22;39042;53.150;5.898;2023-06-26T04:08:49;20.40;99.90
53146;DHT22;39042;53.150;5.898;2023-06-26T04:11:15;20.30;99.90
53146;DHT22;39042;53.150;5.898;2023-06-26T04:13:41;20.20;99.90
53146;DHT22;39042;53.150;5.898;2023-06-26T04:16:07;20.00;99.90
53146;DHT22;39042;53.150;5.898;2023-06-26T04:18:32;20.00;99.90
53146;DHT22;39042;53.150;5.898;2023-06-26T04:21:11;19.90;99.90
53146;DHT22;39042;53.150;5.898;2023-06-26T04:23:38;19.80;99.90
53146;DHT22;39042;53.150;5.898;2023-06-26T04:26:05;19.80;99.90
53146;DHT22;39042;53.150;5.898;2023-06-26T04:28:32;19.70;99.90
53146;DHT22;39042;53.150;5.898;2023-06-26T04:30:58;19.70;99.90
53146;DHT22;39042;53.150;5.898;2023-06-26T04:33:24;19.70;99.90
53146;DHT22;39042;53.150;5.898;2023-06-26T04:35:51;19.70;99.90
53146;DHT22;39042;53.150;5.898;2023-06-26T04:38:18;19.60;99.90
53146;DHT22;39042;53.150;5.898;2023-06-26T04:40:44;19.50;99.90
53146;DHT22;39042;53.150;5.898;2023-06-26T04:43:10;19.40;99.90
53146;DHT22;39042;53.150;5.898;2023-06-26T04:45:36;19.40;99.90
53146;DHT22;39042;53.150;5.898;2023-06-26T04:48:03;19.40;99.90
53146;DHT22;39042;53.150;5.898;2023-06-26T04:50:30;19.30;99.90
53146;DHT22;39042;53.150;5.898;2023-06-26T04:52:56;19.30;99.90
53146;DHT22;39042;53.150;5.898;2023-06-26T04:55:24;19.30;99.90
53146;DHT22;39042;53.150;5.898;2023-06-26T04:57:50;19.20;99.90
53146;DHT22;39042;53.150;5.898;2023-06-26T05:00:16;19.20;99.90
53146;DHT22;39042;53.150;5.898;2023-06-26T05:02:42;19.10;99.90
53146;DHT22;39042;53.150;5.898;2023-06-26T05:05:08;19.00;99.90
53146;DHT22;39042;53.150;5.898;2023-06-26T05:07:34;18.90;99.90
53146;DHT22;39042;53.150;5.898;2023-06-26T05:10:00;18.90;99.90
53146;DHT22;39042;53.150;5.898;2023-06-26T05:12:26;18.80;99.90
53146;DHT22;39042;53.150;5.898;2023-06-26T05:14:52;18.90;99.90
53146;DHT22;39042;53.150;5.898;2023-06-26T05:17:18;18.90;99.90
53146;DHT22;39042;53.150;5.898;2023-06-26T05:19:43;19.00;99.90
53146;DHT22;39042;53.150;5.898;2023-06-26T05:22:09;19.20;99.90
53146;DHT22;39042;53.150;5.898;2023-06-26T05:24:37;19.40;99.90
53146;DHT22;39042;53.150;5.898;2023-06-26T05:27:03;19.40;99.90
53146;DHT22;39042;53.150;5.898;2023-06-26T05:29:30;19.50;99.90
53146;DHT22;39042;53.150;5.898;2023-06-26T05:31:58;19.60;99.90
53146;DHT22;39042;53.150;5.898;2023-06-26T05:34:25;19.60;99.90
53146;DHT22;39042;53.150;5.898;2023-06-26T05:36:58;19.50;99.90
53146;DHT22;39042;53.150;5.898;2023-06-26T05:39:24;19.50;99.90
53146;DHT22;39042;53.150;5.898;2023-06-26T05:41:51;19.50;99.90
53146;DHT22;39042;53.150;5.898;2023-06-26T05:44:17;19.60;99.90
53146;DHT22;39042;53.150;5.898;2023-06-26T05:46:43;19.60;99.90
53146;DHT22;39042;53.150;5.898;2023-06-26T05:49:09;19.60;99.90
53146;DHT22;39042;53.150;5.898;2023-06-26T05:51:36;19.70;99.90
53146;DHT22;39042;53.150;5.898;2023-06-26T05:54:02;19.70;99.90
53146;DHT22;39042;53.150;5.898;2023-06-26T05:56:28;19.80;99.90
53146;DHT22;39042;53.150;5.898;2023-06-26T05:58:54;19.90;99.90
53146;DHT22;39042;53.150;5.898;2023-06-26T06:01:21;19.90;99.90
53146;DHT22;39042;53.150;5.898;2023-06-26T06:03:46;19.90;99.90
53146;DHT22;39042;53.150;5.898;2023-06-26T06:06:12;20.00;99.90
53146;DHT22;39042;53.150;5.898;2023-06-26T06:08:38;20.00;99.90
53146;DHT22;39042;53.150;5.898;2023-06-26T06:11:04;20.00;99.90
53146;DHT22;39042;53.150;5.898;2023-06-26T06:13:30;20.10;99.90
53146;DHT22;39042;53.150;5.898;2023-06-26T06:15:56;20.10;99.90
53146;DHT22;39042;53.150;5.898;2023-06-26T06:18:22;20.20;99.90
53146;DHT22;39042;53.150;5.898;2023-06-26T06:20:48;20.20;99.90
53146;DHT22;39042;53.150;5.898;2023-06-26T06:23:14;20.10;99.90
53146;DHT22;39042;53.150;5.898;2023-06-26T06:25:40;20.20;99.90
53146;DHT22;39042;53.150;5.898;2023-06-26T06:28:06;20.10;99.90
53146;DHT22;39042;53.150;5.898;2023-06-26T06:30:32;20.20;99.90
53146;DHT22;39042;53.150;5.898;2023-06-26T06:32:58;20.20;99.90
53146;DHT22;39042;53.150;5.898;2023-06-26T06:35:23;20.20;99.90
53146;DHT22;39042;53.150;5.898;2023-06-26T06:37:50;20.30;99.90
53146;DHT22;39042;53.150;5.898;2023-06-26T06:40:16;20.30;99.90
53146;DHT22;39042;53.150;5.898;2023-06-26T06:42:42;20.30;99.90
53146;DHT22;39042;53.150;5.898;2023-06-26T06:45:08;20.30;99.90
53146;DHT22;39042;53.150;5.898;2023-06-26T06:47:34;20.40;99.90
53146;DHT22;39042;53.150;5.898;2023-06-26T06:50:01;20.40;99.90
53146;DHT22;39042;53.150;5.898;2023-06-26T06:52:40;20.40;99.90
53146;DHT22;39042;53.150;5.898;2023-06-26T06:55:07;20.30;99.90
53146;DHT22;39042;53.150;5.898;2023-06-26T06:57:38;20.30;99.90
53146;DHT22;39042;53.150;5.898;2023-06-26T07:00:10;20.30;99.90
53146;DHT22;39042;53.150;5.898;2023-06-26T07:02:40;20.40;99.90
53146;DHT22;39042;53.150;5.898;2023-06-26T07:05:06;20.40;99.90
53146;DHT22;39042;53.150;5.898;2023-06-26T07:07:33;20.50;99.90
53146;DHT22;39042;53.150;5.898;2023-06-26T07:10:04;20.50;99.90
53146;DHT22;39042;53.150;5.898;2023-06-26T07:12:31;20.40;99.90
53146;DHT22;39042;53.150;5.898;2023-06-26T07:14:57;20.40;99.90
53146;DHT22;39042;53.150;5.898;2023-06-26T07:17:23;20.50;99.90
53146;DHT22;39042;53.150;5.898;2023-06-26T07:19:49;20.60;99.90
53146;DHT22;39042;53.150;5.898;2023-06-26T07:22:15;20.70;99.90
53146;DHT22;39042;53.150;5.898;2023-06-26T07:24:41;20.70;99.90
53146;DHT22;39042;53.150;5.898;2023-06-26T07:27:08;20.70;99.90
53146;DHT22;39042;53.150;5.898;2023-06-26T07:29:33;20.70;99.90
53146;DHT22;39042;53.150;5.898;2023-06-26T07:46:11;20.90;99.90
53146;DHT22;39042;53.150;5.898;2023-06-26T07:49:36;21.10;99.90
53146;DHT22;39042;53.150;5.898;2023-06-26T07:53:11;21.10;99.90
53146;DHT22;39042;53.150;5.898;2023-06-26T08:32:07;21.30;99.90
53146;DHT22;39042;53.150;5.898;2023-06-26T08:35:03;21.20;99.90
53146;DHT22;39042;53.150;5.898;2023-06-26T08:41:21;20.90;99.90
53146;DHT22;39042;53.150;5.898;2023-06-26T08:43:52;20.90;99.90
53146;DHT22;39042;53.150;5.898;2023-06-26T08:46:23;20.90;99.90
53146;DHT22;39042;53.150;5.898;2023-06-26T08:49:01;20.90;99.90
53146;DHT22;39042;53.150;5.898;2023-06-26T08:51:28;21.10;99.90
53146;DHT22;39042;53.150;5.898;2023-06-26T08:53:58;21.10;99.90
53146;DHT22;39042;53.150;5.898;2023-06-26T08:56:28;21.10;99.90
53146;DHT22;39042;53.150;5.898;2023-06-26T08:58:59;21.10;99.90
53146;DHT22;39042;53.150;5.898;2023-06-26T09:01:25;21.00;99.90
53146;DHT22;39042;53.150;5.898;2023-06-26T09:03:52;21.00;99.90
53146;DHT22;39042;53.150;5.898;2023-06-26T09:06:17;21.10;99.90
53146;DHT22;39042;53.150;5.898;2023-06-26T09:08:44;21.20;99.90
53146;DHT22;39042;53.150;5.898;2023-06-26T09:11:10;21.30;99.90
53146;DHT22;39042;53.150;5.898;2023-06-26T09:13:36;21.30;99.90
53146;DHT22;39042;53.150;5.898;2023-06-26T09:16:09;21.40;99.90
53146;DHT22;39042;53.150;5.898;2023-06-26T09:18:35;21.40;99.90
53146;DHT22;39042;53.150;5.898;2023-06-26T09:21:07;21.50;99.90
53146;DHT22;39042;53.150;5.898;2023-06-26T09:23:34;21.60;99.90
53146;DHT22;39042;53.150;5.898;2023-06-26T09:26:05;21.70;99.90
53146;DHT22;39042;53.150;5.898;2023-06-26T09:28:32;21.80;99.90
53146;DHT22;39042;53.150;5.898;2023-06-26T09:31:07;21.80;99.90
53146;DHT22;39042;53.150;5.898;2023-06-26T09:33:37;21.80;99.90
53146;DHT22;39042;53.150;5.898;2023-06-26T09:36:07;21.70;99.90
53146;DHT22;39042;53.150;5.898;2023-06-26T09:38:38;21.80;99.90
53146;DHT22;39042;53.150;5.898;2023-06-26T09:41:07;22.00;99.90
53146;DHT22;39042;53.150;5.898;2023-06-26T09:43:33;22.10;99.90
53146;DHT22;39042;53.150;5.898;2023-06-26T09:46:00;22.10;99.90
53146;DHT22;39042;53.150;5.898;2023-06-26T09:48:27;22.10;99.90
53146;DHT22;39042;53.150;5.898;2023-06-26T09:50:54;22.20;99.90
53146;DHT22;39042;53.150;5.898;2023-06-26T09:53:27;22.10;99.90
53146;DHT22;39042;53.150;5.898;2023-06-26T09:55:55;22.10;99.90
53146;DHT22;39042;53.150;5.898;2023-06-26T09:58:23;22.10;99.90
53146;DHT22;39042;53.150;5.898;2023-06-26T10:00:49;22.20;99.90
53146;DHT22;39042;53.150;5.898;2023-06-26T10:03:15;22.10;99.90
53146;DHT22;39042;53.150;5.898;2023-06-26T10:05:41;21.90;99.90
53146;DHT22;39042;53.150;5.898;2023-06-26T10:08:07;21.80;99.90
53146;DHT22;39042;53.150;5.898;2023-06-26T10:10:35;21.90;99.90
53146;DHT22;39042;53.150;5.898;2023-06-26T10:13:24;21.80;99.90
53146;DHT22;39042;53.150;5.898;2023-06-26T10:15:53;21.90;99.90
53146;DHT22;39042;53.150;5.898;2023-06-26T10:18:24;21.80;99.90
53146;DHT22;39042;53.150;5.898;2023-06-26T10:20:51;21.80;99.90
53146;DHT22;39042;53.150;5.898;2023-06-26T10:23:19;21.80;99.90
53146;DHT22;39042;53.150;5.898;2023-06-26T10:25:48;21.70;99.90
53146;DHT22;39042;53.150;5.898;2023-06-26T10:28:15;21.70;99.90
53146;DHT22;39042;53.150;5.898;2023-06-26T10:30:43;21.70;99.90
53146;DHT22;39042;53.150;5.898;2023-06-26T10:33:10;21.80;99.90
53146;DHT22;39042;53.150;5.898;2023-06-26T10:35:43;21.90;99.90
53146;DHT22;39042;53.150;5.898;2023-06-26T10:38:12;22.10;99.90
53146;DHT22;39042;53.150;5.898;2023-06-26T10:40:46;22.00;99.90
53146;DHT22;39042;53.150;5.898;2023-06-26T10:43:14;22.10;99.90
53146;DHT22;39042;53.150;5.898;2023-06-26T10:45:49;22.20;99.90
53146;DHT22;39042;53.150;5.898;2023-06-26T10:48:20;22.10;99.90
53146;DHT22;39042;53.150;5.898;2023-06-26T10:50:50;22.10;99.90
53146;DHT22;39042;53.150;5.898;2023-06-26T10:55:58;22.20;99.90
53146;DHT22;39042;53.150;5.898;2023-06-26T11:03:38;22.20;99.90
53146;DHT22;39042;53.150;5.898;2023-06-26T11:06:22;22.20;99.90
53146;DHT22;39042;53.150;5.898;2023-06-26T11:09:14;22.10;99.90
53146;DHT22;39042;53.150;5.898;2023-06-26T11:14:30;22.10;99.90
53146;DHT22;39042;53.150;5.898;2023-06-26T11:16:56;22.10;99.90
53146;DHT22;39042;53.150;5.898;2023-06-26T11:19:26;22.10;99.90
53146;DHT22;39042;53.150;5.898;2023-06-26T11:21:58;22.00;99.90
53146;DHT22;39042;53.150;5.898;2023-06-26T11:24:25;21.90;99.90
53146;DHT22;39042;53.150;5.898;2023-06-26T11:26:51;22.00;99.90
53146;DHT22;39042;53.150;5.898;2023-06-26T11:29:17;22.20;99.90
53146;DHT22;39042;53.150;5.898;2023-06-26T11:31:43;22.20;99.90
53146;DHT22;39042;53.150;5.898;2023-06-26T11:34:12;22.20;99.90
53146;DHT22;39042;53.150;5.898;2023-06-26T11:36:40;22.20;99.90
53146;DHT22;39042;53.150;5.898;2023-06-26T11:39:08;22.10;99.90
53146;DHT22;39042;53.150;5.898;2023-06-26T11:41:39;22.10;99.90
53146;DHT22;39042;53.150;5.898;2023-06-26T11:44:09;22.00;99.90
53146;DHT22;39042;53.150;5.898;2023-06-26T11:46:36;22.00;99.90
53146;DHT22;39042;53.150;5.898;2023-06-26T11:49:06;21.80;99.90
53146;DHT22;39042;53.150;5.898;2023-06-26T11:51:33;21.80;99.90
53146;DHT22;39042;53.150;5.898;2023-06-26T11:54:01;21.90;99.90
53146;DHT22;39042;53.150;5.898;2023-06-26T11:56:30;21.90;99.90
53146;DHT22;39042;53.150;5.898;2023-06-26T12:04:03;22.20;99.90
53146;DHT22;39042;53.150;5.898;2023-06-26T12:06:31;22.20;99.90
53146;DHT22;39042;53.150;5.898;2023-06-26T12:09:00;22.20;99.90
53146;DHT22;39042;53.150;5.898;2023-06-26T12:11:26;22.30;99.90
53146;DHT22;39042;53.150;5.898;2023-06-26T12:13:54;22.30;99.90
53146;DHT22;39042;53.150;5.898;2023-06-26T12:16:20;22.40;99.90
53146;DHT22;39042;53.150;5.898;2023-06-26T12:18:47;22.40;99.90
53146;DHT22;39042;53.150;5.898;2023-06-26T12:21:44;22.40;99.90
53146;DHT22;39042;53.150;5.898;2023-06-26T12:24:16;22.40;99.90
53146;DHT22;39042;53.150;5.898;2023-06-26T12:26:54;22.50;99.90
53146;DHT22;39042;53.150;5.898;2023-06-26T12:29:21;22.60;99.90
53146;DHT22;39042;53.150;5.898;2023-06-26T12:31:52;22.60;99.90
53146;DHT22;39042;53.150;5.898;2023-06-26T12:34:23;22.60;99.90
53146;DHT22;39042;53.150;5.898;2023-06-26T12:36:50;22.50;99.90
53146;DHT22;39042;53.150;5.898;2023-06-26T12:39:21;22.40;99.90
53146;DHT22;39042;53.150;5.898;2023-06-26T12:41:54;22.20;99.90
53146;DHT22;39042;53.150;5.898;2023-06-26T12:44:22;22.20;99.90
53146;DHT22;39042;53.150;5.898;2023-06-26T12:46:54;22.10;99.90
53146;DHT22;39042;53.150;5.898;2023-06-26T12:49:20;22.20;99.90
53146;DHT22;39042;53.150;5.898;2023-06-26T12:51:47;22.20;99.90
53146;DHT22;39042;53.150;5.898;2023-06-26T12:54:13;22.20;99.90
53146;DHT22;39042;53.150;5.898;2023-06-26T12:56:39;22.10;99.90
53146;DHT22;39042;53.150;5.898;2023-06-26T12:59:05;22.00;99.90
53146;DHT22;39042;53.150;5.898;2023-06-26T13:01:31;22.10;99.90
53146;DHT22;39042;53.150;5.898;2023-06-26T13:03:56;22.10;99.90
53146;DHT22;39042;53.150;5.898;2023-06-26T13:06:22;22.10;99.90
53146;DHT22;39042;53.150;5.898;2023-06-26T13:08:48;22.10;99.90
53146;DHT22;39042;53.150;5.898;2023-06-26T13:11:14;22.20;99.90
53146;DHT22;39042;53.150;5.898;2023-06-26T13:13:42;22.30;99.90
53146;DHT22;39042;53.150;5.898;2023-06-26T13:16:08;22.30;99.90
53146;DHT22;39042;53.150;5.898;2023-06-26T13:18:34;22.20;99.90
53146;DHT22;39042;53.150;5.898;2023-06-26T13:20:59;22.30;99.90
53146;DHT22;39042;53.150;5.898;2023-06-26T13:23:26;22.30;99.90
53146;DHT22;39042;53.150;5.898;2023-06-26T13:25:52;22.30;99.90
53146;DHT22;39042;53.150;5.898;2023-06-26T13:28:18;22.30;99.90
53146;DHT22;39042;53.150;5.898;2023-06-26T13:30:44;22.20;99.70
53146;DHT22;39042;53.150;5.898;2023-06-26T13:33:10;22.20;99.90
53146;DHT22;39042;53.150;5.898;2023-06-26T13:35:36;22.30;99.90
53146;DHT22;39042;53.150;5.898;2023-06-26T13:38:02;22.30;99.90
53146;DHT22;39042;53.150;5.898;2023-06-26T13:40:28;22.10;99.90
53146;DHT22;39042;53.150;5.898;2023-06-26T13:42:54;22.00;99.90
53146;DHT22;39042;53.150;5.898;2023-06-26T13:45:20;22.00;99.90
53146;DHT22;39042;53.150;5.898;2023-06-26T13:47:46;22.00;99.90
53146;DHT22;39042;53.150;5.898;2023-06-26T13:50:11;22.00;99.90
53146;DHT22;39042;53.150;5.898;2023-06-26T13:52:37;21.90;99.90
53146;DHT22;39042;53.150;5.898;2023-06-26T13:55:03;21.90;99.90
53146;DHT22;39042;53.150;5.898;2023-06-26T13:57:32;21.70;99.90
53146;DHT22;39042;53.150;5.898;2023-06-26T13:59:59;21.50;99.90
53146;DHT22;39042;53.150;5.898;2023-06-26T14:02:25;21.50;99.90
53146;DHT22;39042;53.150;5.898;2023-06-26T14:04:52;21.50;99.90
53146;DHT22;39042;53.150;5.898;2023-06-26T14:07:17;21.70;99.90
53146;DHT22;39042;53.150;5.898;2023-06-26T14:09:43;21.70;99.90
53146;DHT22;39042;53.150;5.898;2023-06-26T14:12:09;21.80;99.90
53146;DHT22;39042;53.150;5.898;2023-06-26T14:14:35;21.70;99.90
53146;DHT22;39042;53.150;5.898;2023-06-26T14:17:01;21.60;99.90
53146;DHT22;39042;53.150;5.898;2023-06-26T14:19:27;21.50;99.90
53146;DHT22;39042;53.150;5.898;2023-06-26T14:21:53;21.60;99.90
53146;DHT22;39042;53.150;5.898;2023-06-26T14:24:19;21.70;99.90
53146;DHT22;39042;53.150;5.898;2023-06-26T14:26:45;21.60;99.90
53146;DHT22;39042;53.150;5.898;2023-06-26T14:29:11;21.50;99.90
53146;DHT22;39042;53.150;5.898;2023-06-26T14:31:36;21.60;99.90
53146;DHT22;39042;53.150;5.898;2023-06-26T14:34:02;21.80;99.90
53146;DHT22;39042;53.150;5.898;2023-06-26T14:36:28;21.90;99.90
53146;DHT22;39042;53.150;5.898;2023-06-26T14:38:57;21.80;99.90
53146;DHT22;39042;53.150;5.898;2023-06-26T14:41:24;21.80;99.90
53146;DHT22;39042;53.150;5.898;2023-06-26T14:43:50;21.90;99.90
53146;DHT22;39042;53.150;5.898;2023-06-26T14:46:16;21.90;99.50
53146;DHT22;39042;53.150;5.898;2023-06-26T14:48:42;21.70;99.30
53146;DHT22;39042;53.150;5.898;2023-06-26T14:51:08;21.60;99.50
53146;DHT22;39042;53.150;5.898;2023-06-26T14:53:34;21.50;99.40
53146;DHT22;39042;53.150;5.898;2023-06-26T14:55:59;21.50;99.20
53146;DHT22;39042;53.150;5.898;2023-06-26T14:58:25;21.40;99.40
53146;DHT22;39042;53.150;5.898;2023-06-26T15:00:51;21.40;99.10
53146;DHT22;39042;53.150;5.898;2023-06-26T15:03:17;21.40;98.60
53146;DHT22;39042;53.150;5.898;2023-06-26T15:05:43;21.40;98.20
53146;DHT22;39042;53.150;5.898;2023-06-26T15:08:08;21.40;98.30
53146;DHT22;39042;53.150;5.898;2023-06-26T15:10:36;21.50;97.90
53146;DHT22;39042;53.150;5.898;2023-06-26T15:13:02;21.50;97.70
53146;DHT22;39042;53.150;5.898;2023-06-26T15:15:28;21.50;98.10
53146;DHT22;39042;53.150;5.898;2023-06-26T15:17:54;21.50;97.80
53146;DHT22;39042;53.150;5.898;2023-06-26T15:20:19;21.40;97.30
53146;DHT22;39042;53.150;5.898;2023-06-26T15:22:45;21.50;97.50
53146;DHT22;39042;53.150;5.898;2023-06-26T15:25:11;21.40;97.10
53146;DHT22;39042;53.150;5.898;2023-06-26T15:27:37;21.40;98.10
53146;DHT22;39042;53.150;5.898;2023-06-26T15:30:03;21.40;97.80
53146;DHT22;39042;53.150;5.898;2023-06-26T15:32:31;21.40;96.90
53146;DHT22;39042;53.150;5.898;2023-06-26T15:34:57;21.40;96.50
53146;DHT22;39042;53.150;5.898;2023-06-26T15:37:23;21.30;96.90
53146;DHT22;39042;53.150;5.898;2023-06-26T15:39:49;21.20;96.20
53146;DHT22;39042;53.150;5.898;2023-06-26T15:42:15;21.20;96.40
53146;DHT22;39042;53.150;5.898;2023-06-26T15:44:40;21.20;97.00
53146;DHT22;39042;53.150;5.898;2023-06-26T15:47:06;21.10;96.20
53146;DHT22;39042;53.150;5.898;2023-06-26T15:49:32;21.20;96.40
53146;DHT22;39042;53.150;5.898;2023-06-26T15:51:58;21.00;96.10
53146;DHT22;39042;53.150;5.898;2023-06-26T15:54:25;21.00;96.30
53146;DHT22;39042;53.150;5.898;2023-06-26T15:56:51;21.00;96.40
53146;DHT22;39042;53.150;5.898;2023-06-26T15:59:17;21.00;97.00
53146;DHT22;39042;53.150;5.898;2023-06-26T16:01:44;21.00;96.30
53146;DHT22;39042;53.150;5.898;2023-06-26T16:04:11;20.90;95.80
53146;DHT22;39042;53.150;5.898;2023-06-26T16:06:38;20.80;96.10
53146;DHT22;39042;53.150;5.898;2023-06-26T16:09:04;20.80;96.60
53146;DHT22;39042;53.150;5.898;2023-06-26T16:11:29;20.80;97.00
53146;DHT22;39042;53.150;5.898;2023-06-26T16:13:55;20.80;96.90
53146;DHT22;39042;53.150;5.898;2023-06-26T16:16:23;20.80;96.20
53146;DHT22;39042;53.150;5.898;2023-06-26T16:18:49;20.90;96.60
53146;DHT22;39042;53.150;5.898;2023-06-26T16:21:15;20.80;96.30
53146;DHT22;39042;53.150;5.898;2023-06-26T16:23:42;20.90;96.20
53146;DHT22;39042;53.150;5.898;2023-06-26T16:26:08;20.80;96.50
53146;DHT22;39042;53.150;5.898;2023-06-26T16:28:34;20.90;96.40
53146;DHT22;39042;53.150;5.898;2023-06-26T16:30:59;20.80;95.30
53146;DHT22;39042;53.150;5.898;2023-06-26T16:33:25;20.80;95.90
53146;DHT22;39042;53.150;5.898;2023-06-26T16:35:51;20.80;95.90
53146;DHT22;39042;53.150;5.898;2023-06-26T16:38:17;20.70;95.50
53146;DHT22;39042;53.150;5.898;2023-06-26T16:40:43;20.70;95.80
53146;DHT22;39042;53.150;5.898;2023-06-26T16:43:09;20.70;96.00
53146;DHT22;39042;53.150;5.898;2023-06-26T16:45:35;20.70;96.00
53146;DHT22;39042;53.150;5.898;2023-06-26T16:48:01;20.70;95.90